createdAt,value
2023-05-08T00:01:56.610Z,98347.00
2023-05-08T00:04:25.783Z,98348.00
2023-05-08T00:06:53.489Z,98342.00
2023-05-08T00:09:22.189Z,98342.00
2023-05-08T00:11:49.810Z,98340.00
2023-05-08T00:14:17.452Z,98346.00
2023-05-08T00:16:45.215Z,98347.00
2023-05-08T00:19:12.901Z,98346.00
2023-05-08T00:21:42.220Z,98344.00
2023-05-08T00:24:09.856Z,98338.00
2023-05-08T00:26:37.492Z,98353.00
2023-05-08T00:29:06.541Z,98352.00
2023-05-08T00:31:34.562Z,98348.00
2023-05-08T00:34:02.165Z,98342.00
2023-05-08T00:36:29.822Z,98348.00
2023-05-08T00:38:58.838Z,98336.00
2023-05-08T00:41:26.475Z,98342.00
2023-05-08T00:43:54.094Z,98342.00
2023-05-08T00:46:21.863Z,98347.00
2023-05-08T00:48:49.792Z,98355.00
2023-05-08T00:51:17.670Z,98346.00
2023-05-08T00:53:45.603Z,98345.00
2023-05-08T00:56:16.836Z,98353.00
2023-05-08T00:58:45.710Z,98355.00
2023-05-08T01:01:13.565Z,98359.00
2023-05-08T01:03:41.794Z,98358.00
2023-05-08T01:06:09.655Z,98356.00
2023-05-08T01:08:37.545Z,98366.00
2023-05-08T01:11:13.870Z,98368.00
2023-05-08T01:13:53.214Z,98371.00
2023-05-08T01:16:30.912Z,98365.00
2023-05-08T01:19:08.229Z,98375.00
2023-05-08T01:21:41.424Z,98374.00
2023-05-08T01:24:50.547Z,98382.00
2023-05-08T01:27:39.493Z,98381.00
2023-05-08T01:30:26.333Z,98390.00
2023-05-08T01:32:58.470Z,98377.00
2023-05-08T01:35:33.734Z,98376.00
2023-05-08T01:38:09.771Z,98387.00
2023-05-08T01:40:45.781Z,98376.00
2023-05-08T01:43:20.842Z,98380.00
2023-05-08T01:45:51.077Z,98383.00
2023-05-08T01:48:25.428Z,98386.00
2023-05-08T01:50:57.538Z,98386.00
2023-05-08T01:53:29.558Z,98382.00
2023-05-08T01:55:59.409Z,98388.00
2023-05-08T01:58:28.675Z,98389.00
2023-05-08T02:00:57.665Z,98399.00
2023-05-08T02:03:27.177Z,98402.00
2023-05-08T02:05:57.526Z,98403.00
2023-05-08T02:08:27.158Z,98396.00
2023-05-08T02:10:55.020Z,98394.00
2023-05-08T02:13:23.562Z,98400.00
2023-05-08T02:15:53.722Z,98404.00
2023-05-08T02:18:22.627Z,98402.00
2023-05-08T02:20:53.175Z,98401.00
2023-05-08T02:23:22.933Z,98399.00
2023-05-08T02:25:51.595Z,98404.00
2023-05-08T02:28:20.608Z,98404.00
2023-05-08T02:30:49.994Z,98405.00
2023-05-08T02:33:18.998Z,98404.00
2023-05-08T02:35:50.571Z,98399.00
2023-05-08T02:38:22.317Z,98404.00
2023-05-08T02:40:55.012Z,98399.00
2023-05-08T02:43:23.988Z,98409.00
2023-05-08T02:46:00.298Z,98408.00
2023-05-08T02:48:34.844Z,98412.00
2023-05-08T02:51:11.296Z,98416.00
2023-05-08T02:53:47.487Z,98417.00
2023-05-08T02:56:23.028Z,98411.00
2023-05-08T02:58:58.725Z,98412.00
2023-05-08T03:01:30.230Z,98410.00
2023-05-08T03:04:03.640Z,98413.00
2023-05-08T03:06:37.688Z,98415.00
2023-05-08T03:09:09.113Z,98420.00
2023-05-08T03:11:41.632Z,98417.00
2023-05-08T03:14:12.616Z,98411.00
2023-05-08T03:16:44.053Z,98419.00
2023-05-08T03:19:17.786Z,98415.00
2023-05-08T03:21:47.282Z,98419.00
2023-05-08T03:24:17.837Z,98420.00
2023-05-08T03:26:45.946Z,98418.00
2023-05-08T03:29:14.730Z,98416.00
2023-05-08T03:31:44.727Z,98419.00
2023-05-08T03:34:14.628Z,98416.00
2023-05-08T03:36:42.726Z,98415.00
2023-05-08T03:39:10.624Z,98418.00
2023-05-08T03:41:39.641Z,98419.00
2023-05-08T03:44:08.978Z,98424.00
2023-05-08T03:46:37.114Z,98423.00
2023-05-08T03:49:05.891Z,98420.00
2023-05-08T03:51:33.907Z,98420.00
2023-05-08T03:54:01.513Z,98418.00
2023-05-08T03:56:29.228Z,98416.00
2023-05-08T03:59:14.782Z,98417.00
2023-05-08T04:01:51.608Z,98423.00
2023-05-08T04:04:28.952Z,98425.00
2023-05-08T04:07:03.838Z,98424.00
2023-05-08T04:09:35.923Z,98436.00
2023-05-08T04:12:06.445Z,98428.00
2023-05-08T04:14:38.919Z,98437.00
2023-05-08T04:17:10.892Z,98439.00
2023-05-08T04:19:43.875Z,98446.00
2023-05-08T04:22:13.697Z,98447.00
2023-05-08T04:24:44.421Z,98449.00
2023-05-08T04:27:13.797Z,98449.00
2023-05-08T04:29:43.083Z,98452.00
2023-05-08T04:32:11.931Z,98447.00
2023-05-08T04:34:39.698Z,98451.00
2023-05-08T04:37:07.880Z,98459.00
2023-05-08T04:39:35.509Z,98456.00
2023-05-08T04:42:04.770Z,98451.00
2023-05-08T04:44:32.446Z,98458.00
2023-05-08T04:47:01.444Z,98454.00
2023-05-08T04:49:29.099Z,98458.00
2023-05-08T04:51:56.731Z,98461.00
2023-05-08T04:54:24.457Z,98461.00
2023-05-08T04:56:52.116Z,98464.00
2023-05-08T04:59:19.771Z,98471.00
2023-05-08T05:01:48.264Z,98462.00
2023-05-08T05:04:17.648Z,98462.00
2023-05-08T05:06:45.575Z,98465.00
2023-05-08T05:09:13.230Z,98467.00
2023-05-08T05:11:40.919Z,98462.00
2023-05-08T05:14:08.609Z,98468.00
2023-05-08T05:16:36.383Z,98465.00
2023-05-08T05:19:04.816Z,98477.00
2023-05-08T05:21:33.868Z,98469.00
2023-05-08T05:24:01.504Z,98468.00
2023-05-08T05:26:29.142Z,98468.00
2023-05-08T05:28:56.806Z,98470.00
2023-05-08T05:31:24.476Z,98465.00
2023-05-08T05:33:52.310Z,98467.00
2023-05-08T05:36:19.936Z,98468.00
2023-05-08T05:38:48.912Z,98475.00
2023-05-08T05:41:16.566Z,98476.00
2023-05-08T05:43:44.180Z,98476.00
2023-05-08T05:46:12.021Z,98478.00
2023-05-08T05:48:48.784Z,98482.00
2023-05-08T05:51:16.540Z,98479.00
2023-05-08T05:53:44.835Z,98488.00
2023-05-08T05:56:13.839Z,98482.00
2023-05-08T05:58:44.763Z,98487.00
2023-05-08T06:01:12.677Z,98481.00
2023-05-08T06:03:40.442Z,98486.00
2023-05-08T06:06:08.737Z,98481.00
2023-05-08T06:08:36.442Z,98486.00
2023-05-08T06:11:04.330Z,98491.00
2023-05-08T06:13:33.529Z,98491.00
2023-05-08T06:16:01.332Z,98494.00
2023-05-08T06:18:29.044Z,98491.00
2023-05-08T06:20:58.564Z,98495.00
2023-05-08T06:23:27.031Z,98493.00
2023-05-08T06:25:55.172Z,98491.00
2023-05-08T06:28:25.923Z,98497.00
2023-05-08T06:30:55.188Z,98497.00
2023-05-08T06:33:25.441Z,98500.00
2023-05-08T06:35:54.363Z,98503.00
2023-05-08T06:38:22.159Z,98506.00
2023-05-08T06:40:50.665Z,98507.00
2023-05-08T06:43:18.370Z,98509.00
2023-05-08T06:45:46.418Z,98503.00
2023-05-08T06:48:15.497Z,98501.00
2023-05-08T06:50:43.321Z,98509.00
2023-05-08T06:53:11.121Z,98504.00
2023-05-08T06:55:38.714Z,98505.00
2023-05-08T06:58:06.367Z,98504.00
2023-05-08T07:00:34.138Z,98499.00
2023-05-08T07:03:01.856Z,98501.00
2023-05-08T07:05:30.880Z,98503.00
2023-05-08T07:07:58.576Z,98505.00
2023-05-08T07:10:26.495Z,98503.00
2023-05-08T07:12:54.548Z,98507.00
2023-05-08T07:15:26.429Z,98507.00
2023-05-08T07:17:54.811Z,98500.00
2023-05-08T07:20:24.471Z,98502.00
2023-05-08T07:22:53.687Z,98502.00
2023-05-08T07:25:21.634Z,98506.00
2023-05-08T07:27:49.324Z,98504.00
2023-05-08T07:30:17.420Z,98507.00
2023-05-08T07:32:45.035Z,98505.00
2023-05-08T07:35:13.392Z,98500.00
2023-05-08T07:37:41.180Z,98506.00
2023-05-08T07:40:11.034Z,98506.00
2023-05-08T07:42:42.099Z,98503.00
2023-05-08T07:45:11.789Z,98508.00
2023-05-08T07:47:39.979Z,98508.00
2023-05-08T07:50:08.509Z,98509.00
2023-05-08T07:52:36.214Z,98512.00
2023-05-08T07:55:04.158Z,98507.00
2023-05-08T07:57:38.839Z,98517.00
2023-05-08T08:00:08.140Z,98512.00
2023-05-08T08:02:36.452Z,98505.00
2023-05-08T08:05:04.329Z,98500.00
2023-05-08T08:07:33.281Z,98500.00
2023-05-08T08:10:01.109Z,98504.00
2023-05-08T08:12:29.240Z,98511.00
2023-05-08T08:14:58.288Z,98506.00
2023-05-08T08:17:28.528Z,98499.00
2023-05-08T08:19:57.187Z,98498.00
2023-05-08T08:22:25.088Z,98502.00
2023-05-08T08:24:55.058Z,98504.00
2023-05-08T08:27:23.170Z,98511.00
2023-05-08T08:29:54.503Z,98500.00
2023-05-08T08:32:30.611Z,98501.00
2023-05-08T08:34:58.281Z,98504.00
2023-05-08T08:37:26.358Z,98501.00
2023-05-08T08:39:54.900Z,98495.00
2023-05-08T08:42:23.512Z,98496.00
2023-05-08T08:44:51.294Z,98504.00
2023-05-08T08:47:20.649Z,98500.00
2023-05-08T08:49:50.071Z,98490.00
2023-05-08T08:52:28.328Z,98497.00
2023-05-08T08:54:57.716Z,98492.00
2023-05-08T08:57:26.699Z,98498.00
2023-05-08T08:59:55.909Z,98502.00
2023-05-08T09:02:25.190Z,98500.00
2023-05-08T09:04:54.378Z,98501.00
2023-05-08T09:07:23.106Z,98494.00
2023-05-08T09:09:51.608Z,98498.00
2023-05-08T09:12:19.296Z,98506.00
2023-05-08T09:14:47.022Z,98505.00
2023-05-08T09:17:14.671Z,98504.00
2023-05-08T09:19:43.235Z,98503.00
2023-05-08T09:22:13.293Z,98512.00
2023-05-08T09:24:56.813Z,98501.00
2023-05-08T09:27:26.623Z,98502.00
2023-05-08T09:30:02.857Z,98501.00
2023-05-08T09:32:30.975Z,98504.00
2023-05-08T09:34:59.074Z,98500.00
2023-05-08T09:37:29.001Z,98504.00
2023-05-08T09:40:14.324Z,98495.00
2023-05-08T09:42:42.219Z,98498.00
2023-05-08T09:45:11.413Z,98501.00
2023-05-08T09:47:40.139Z,98500.00
2023-05-08T09:50:09.815Z,98504.00
2023-05-08T09:52:40.685Z,98503.00
2023-05-08T09:55:10.307Z,98505.00
2023-05-08T09:57:39.750Z,98500.00
2023-05-08T10:00:09.913Z,98508.00
2023-05-08T10:02:39.866Z,98504.00
2023-05-08T10:05:24.974Z,98501.00
2023-05-08T10:07:54.596Z,98502.00
2023-05-08T10:10:27.705Z,98505.00
2023-05-08T10:12:57.276Z,98509.00
2023-05-08T10:15:26.684Z,98493.00
2023-05-08T10:17:56.623Z,98497.00
2023-05-08T10:20:28.221Z,98502.00
2023-05-08T10:22:57.945Z,98506.00
2023-05-08T10:25:26.705Z,98502.00
2023-05-08T10:28:03.516Z,98499.00
2023-05-08T10:30:32.998Z,98497.00
2023-05-08T10:33:04.368Z,98494.00
2023-05-08T10:35:32.828Z,98499.00
2023-05-08T10:38:03.368Z,98496.00
2023-05-08T10:40:31.128Z,98499.00
2023-05-08T10:43:00.474Z,98495.00
2023-05-08T10:45:29.872Z,98498.00
2023-05-08T10:48:04.778Z,98500.00
2023-05-08T10:50:47.399Z,98494.00
2023-05-08T10:53:19.939Z,98499.00
2023-05-08T10:55:51.051Z,98492.00
2023-05-08T10:58:31.492Z,98486.00
2023-05-08T11:01:16.655Z,98494.00
2023-05-08T11:03:46.838Z,98486.00
2023-05-08T11:06:15.342Z,98488.00
2023-05-08T11:08:54.803Z,98495.00
2023-05-08T11:11:29.283Z,98495.00
2023-05-08T11:14:01.355Z,98490.00
2023-05-08T11:17:11.729Z,98481.00
2023-05-08T11:19:39.896Z,98495.00
2023-05-08T11:22:25.843Z,98481.00
2023-05-08T11:25:00.405Z,98488.00
2023-05-08T11:27:39.763Z,98482.00
2023-05-08T11:30:24.630Z,98488.00
2023-05-08T11:33:16.803Z,98485.00
2023-05-08T11:35:47.420Z,98480.00
2023-05-08T11:38:32.742Z,98478.00
2023-05-08T11:41:04.075Z,98475.00
2023-05-08T11:44:14.784Z,98477.00
2023-05-08T11:46:48.245Z,98481.00
2023-05-08T11:49:18.904Z,98478.00
2023-05-08T11:51:50.371Z,98475.00
2023-05-08T11:54:19.688Z,98478.00
2023-05-08T11:56:49.570Z,98481.00
2023-05-08T11:59:18.147Z,98480.00
2023-05-08T12:01:53.564Z,98472.00
2023-05-08T12:04:28.189Z,98479.00
2023-05-08T12:06:58.746Z,98477.00
2023-05-08T12:09:26.984Z,98472.00
2023-05-08T12:11:59.074Z,98479.00
2023-05-08T12:14:26.876Z,98479.00
2023-05-08T12:16:54.660Z,98477.00
2023-05-08T12:19:22.654Z,98478.00
2023-05-08T12:21:51.436Z,98480.00
2023-05-08T12:24:23.215Z,98479.00
2023-05-08T12:26:54.312Z,98480.00
2023-05-08T12:29:24.007Z,98482.00
2023-05-08T12:31:53.787Z,98479.00
2023-05-08T12:34:22.405Z,98478.00
2023-05-08T12:36:51.306Z,98476.00
2023-05-08T12:39:19.996Z,98473.00
2023-05-08T12:41:49.117Z,98472.00
2023-05-08T12:44:18.755Z,98470.00
2023-05-08T12:46:53.175Z,98471.00
2023-05-08T12:49:26.208Z,98478.00
2023-05-08T12:52:01.609Z,98475.00
2023-05-08T12:54:37.289Z,98482.00
2023-05-08T12:57:10.642Z,98477.00
2023-05-08T12:59:38.375Z,98476.00
2023-05-08T13:02:13.900Z,98477.00
2023-05-08T13:04:41.762Z,98475.00
2023-05-08T13:07:09.588Z,98475.00
2023-05-08T13:09:37.446Z,98470.00
2023-05-08T13:12:05.774Z,98466.00
2023-05-08T13:14:33.608Z,98460.00
2023-05-08T13:17:01.388Z,98462.00
2023-05-08T13:19:30.633Z,98460.00
2023-05-08T13:21:58.278Z,98455.00
2023-05-08T13:24:26.854Z,98451.00
2023-05-08T13:26:54.518Z,98455.00
2023-05-08T13:29:22.465Z,98453.00
2023-05-08T13:31:50.158Z,98448.00
2023-05-08T13:34:18.128Z,98447.00
2023-05-08T13:36:47.267Z,98444.00
2023-05-08T13:39:15.251Z,98441.00
2023-05-08T13:41:42.885Z,98443.00
2023-05-08T13:44:10.903Z,98447.00
2023-05-08T13:46:38.529Z,98444.00
2023-05-08T13:49:06.214Z,98438.00
2023-05-08T13:51:33.928Z,98433.00
2023-05-08T13:54:03.006Z,98437.00
2023-05-08T13:56:30.711Z,98428.00
2023-05-08T13:58:58.790Z,98431.00
2023-05-08T14:01:27.765Z,98434.00
2023-05-08T14:03:55.812Z,98428.00
2023-05-08T14:06:23.929Z,98428.00
2023-05-08T14:08:53.582Z,98428.00
2023-05-08T14:11:24.397Z,98433.00
2023-05-08T14:13:52.143Z,98421.00
2023-05-08T14:16:20.034Z,98433.00
2023-05-08T14:18:47.785Z,98431.00
2023-05-08T14:21:15.492Z,98417.00
2023-05-08T14:23:43.830Z,98415.00
2023-05-08T14:26:11.767Z,98413.00
2023-05-08T14:28:40.803Z,98420.00
2023-05-08T14:31:08.551Z,98412.00
2023-05-08T14:33:36.275Z,98413.00
2023-05-08T14:36:04.086Z,98405.00
2023-05-08T14:38:32.045Z,98404.00
2023-05-08T14:41:03.177Z,98404.00
2023-05-08T14:43:32.095Z,98402.00
2023-05-08T14:46:01.229Z,98388.00
2023-05-08T14:48:28.975Z,98396.00
2023-05-08T14:50:57.683Z,98403.00
2023-05-08T14:53:25.564Z,98406.00
2023-05-08T14:55:53.589Z,98411.00
2023-05-08T14:58:21.459Z,98399.00
2023-05-08T15:00:49.194Z,98407.00
2023-05-08T15:03:18.680Z,98399.00
2023-05-08T15:05:47.207Z,98396.00
2023-05-08T15:08:14.974Z,98402.00
2023-05-08T15:10:43.386Z,98406.00
2023-05-08T15:13:11.117Z,98398.00
2023-05-08T15:15:39.078Z,98401.00
2023-05-08T15:18:06.898Z,98407.00
2023-05-08T15:20:36.007Z,98408.00
2023-05-08T15:23:03.699Z,98406.00
2023-05-08T15:25:31.368Z,98411.00
2023-05-08T15:28:00.720Z,98399.00
2023-05-08T15:30:28.952Z,98407.00
2023-05-08T15:32:56.721Z,98404.00
2023-05-08T15:35:24.450Z,98410.00
2023-05-08T15:37:53.464Z,98407.00
2023-05-08T15:40:21.156Z,98407.00
2023-05-08T15:42:48.833Z,98412.00
2023-05-08T15:45:16.641Z,98414.00
2023-05-08T15:47:44.438Z,98407.00
2023-05-08T15:50:12.462Z,98408.00
2023-05-08T15:52:40.184Z,98402.00
2023-05-08T15:55:09.831Z,98396.00
2023-05-08T15:57:37.479Z,98399.00
2023-05-08T16:00:06.063Z,98400.00
2023-05-08T16:02:33.903Z,98390.00
2023-05-08T16:05:01.664Z,98395.00
2023-05-08T16:07:29.310Z,98390.00
2023-05-08T16:09:56.987Z,98386.00
2023-05-08T16:12:26.016Z,98390.00
2023-05-08T16:14:53.681Z,98387.00
2023-05-08T16:17:21.322Z,98383.00
2023-05-08T16:19:48.998Z,98384.00
2023-05-08T16:22:16.684Z,98385.00
2023-05-08T16:24:44.365Z,98385.00
2023-05-08T16:27:12.430Z,98378.00
2023-05-08T16:29:41.494Z,98385.00
2023-05-08T16:32:09.159Z,98384.00
2023-05-08T16:34:36.933Z,98392.00
2023-05-08T16:37:04.624Z,98391.00
2023-05-08T16:39:32.387Z,98389.00
2023-05-08T16:42:00.153Z,98394.00
2023-05-08T16:44:27.836Z,98391.00
2023-05-08T16:46:56.955Z,98388.00
2023-05-08T16:49:24.610Z,98397.00
2023-05-08T16:51:52.270Z,98394.00
2023-05-08T16:54:19.965Z,98393.00
2023-05-08T16:56:47.611Z,98398.00
2023-05-08T16:59:15.295Z,98400.00
2023-05-08T17:01:43.042Z,98400.00
2023-05-08T17:04:12.084Z,98401.00
2023-05-08T17:06:40.414Z,98406.00
2023-05-08T17:09:08.188Z,98400.00
2023-05-08T17:11:35.890Z,98400.00
2023-05-08T17:14:03.552Z,98404.00
2023-05-08T17:16:31.304Z,98405.00
2023-05-08T17:18:59.740Z,98408.00
2023-05-08T17:21:30.227Z,98412.00
2023-05-08T17:23:57.882Z,98411.00
2023-05-08T17:26:25.604Z,98415.00
2023-05-08T17:28:53.271Z,98417.00
2023-05-08T17:31:21.373Z,98412.00
2023-05-08T17:33:49.097Z,98415.00
2023-05-08T17:36:16.784Z,98412.00
2023-05-08T17:38:47.220Z,98418.00
2023-05-08T17:41:15.173Z,98413.00
2023-05-08T17:43:42.862Z,98408.00
2023-05-08T17:46:10.833Z,98421.00
2023-05-08T17:48:38.576Z,98415.00
2023-05-08T17:51:06.361Z,98426.00
2023-05-08T17:53:34.070Z,98429.00
2023-05-08T17:56:03.093Z,98434.00
2023-05-08T17:58:30.867Z,98432.00
2023-05-08T18:00:58.591Z,98419.00
2023-05-08T18:03:26.318Z,98427.00
2023-05-08T18:05:54.168Z,98427.00
2023-05-08T18:08:22.033Z,98426.00
2023-05-08T18:10:49.715Z,98427.00
2023-05-08T18:13:18.785Z,98435.00
2023-05-08T18:15:46.551Z,98429.00
2023-05-08T18:18:14.243Z,98431.00
2023-05-08T18:20:42.009Z,98438.00
2023-05-08T18:23:09.675Z,98441.00
2023-05-08T18:25:38.024Z,98443.00
2023-05-08T18:28:06.135Z,98456.00
2023-05-08T18:30:36.562Z,98455.00
2023-05-08T18:33:04.321Z,98445.00
2023-05-08T18:35:32.025Z,98448.00
2023-05-08T18:38:02.610Z,98452.00
2023-05-08T18:40:30.736Z,98460.00
2023-05-08T18:42:58.486Z,98448.00
2023-05-08T18:45:26.295Z,98453.00
2023-05-08T18:47:57.526Z,98449.00
2023-05-08T18:50:25.905Z,98455.00
2023-05-08T18:52:53.588Z,98458.00
2023-05-08T18:55:21.243Z,98452.00
2023-05-08T18:57:48.880Z,98458.00
2023-05-08T19:00:24.350Z,98464.00
2023-05-08T19:03:01.963Z,98466.00
2023-05-08T19:05:30.142Z,98469.00
2023-05-08T19:07:57.828Z,98471.00
2023-05-08T19:10:25.722Z,98471.00
2023-05-08T19:12:53.427Z,98474.00
2023-05-08T19:15:21.233Z,98475.00
2023-05-08T19:17:49.177Z,98476.00
2023-05-08T19:20:18.298Z,98472.00
2023-05-08T19:22:46.788Z,98466.00
2023-05-08T19:25:14.652Z,98462.00
2023-05-08T19:27:42.330Z,98464.00
2023-05-08T19:30:10.970Z,98463.00
2023-05-08T19:32:38.762Z,98468.00
2023-05-08T19:35:08.213Z,98460.00
2023-05-08T19:37:37.909Z,98463.00
2023-05-08T19:40:06.152Z,98468.00
2023-05-08T19:42:34.009Z,98470.00
2023-05-08T19:45:01.701Z,98471.00
2023-05-08T19:47:29.489Z,98469.00
2023-05-08T19:49:57.523Z,98473.00
2023-05-08T19:52:25.610Z,98475.00
2023-05-08T19:54:54.833Z,98477.00
2023-05-08T19:57:22.563Z,98477.00
2023-05-08T19:59:50.681Z,98478.00
2023-05-08T20:02:18.387Z,98483.00
2023-05-08T20:05:14.360Z,98488.00
2023-05-08T20:07:33.832Z,98487.00
2023-05-08T20:10:02.904Z,98484.00
2023-05-08T20:12:30.559Z,98487.00
2023-05-08T20:14:58.381Z,98489.00
2023-05-08T20:17:26.147Z,98487.00
2023-05-08T20:19:54.002Z,98480.00
2023-05-08T20:22:21.830Z,98479.00
2023-05-08T20:24:49.599Z,98483.00
2023-05-08T20:27:18.761Z,98480.00
2023-05-08T20:29:46.723Z,98477.00
2023-05-08T20:32:16.405Z,98480.00
2023-05-08T20:34:44.499Z,98484.00
2023-05-08T20:37:13.046Z,98477.00
2023-05-08T20:39:40.675Z,98477.00
2023-05-08T20:42:08.605Z,98476.00
2023-05-08T20:44:37.616Z,98473.00
2023-05-08T20:47:05.699Z,98471.00
2023-05-08T20:49:33.436Z,98474.00
2023-05-08T20:52:01.425Z,98467.00
2023-05-08T20:54:30.136Z,98468.00
2023-05-08T20:56:58.156Z,98460.00
2023-05-08T20:59:25.975Z,98466.00
2023-05-08T21:01:55.125Z,98465.00
2023-05-08T21:04:22.865Z,98458.00
2023-05-08T21:06:52.039Z,98453.00
2023-05-08T21:09:20.024Z,98448.00
2023-05-08T21:11:47.701Z,98447.00
2023-05-08T21:14:15.805Z,98444.00
2023-05-08T21:16:43.486Z,98441.00
2023-05-08T21:19:17.161Z,98440.00
2023-05-08T21:21:45.038Z,98439.00
2023-05-08T21:24:12.839Z,98442.00
2023-05-08T21:26:40.663Z,98442.00
2023-05-08T21:29:10.708Z,98436.00
2023-05-08T21:31:38.577Z,98432.00
2023-05-08T21:34:06.919Z,98421.00
2023-05-08T21:36:36.086Z,98423.00
2023-05-08T21:39:03.969Z,98420.00
2023-05-08T21:41:33.168Z,98421.00
2023-05-08T21:44:00.921Z,98421.00
2023-05-08T21:46:28.760Z,98419.00
2023-05-08T21:48:56.468Z,98420.00
2023-05-08T21:51:24.198Z,98414.00
2023-05-08T21:53:53.237Z,98419.00
2023-05-08T21:56:20.919Z,98415.00
2023-05-08T21:58:49.069Z,98408.00
2023-05-08T22:01:16.843Z,98405.00
2023-05-08T22:03:44.653Z,98407.00
2023-05-08T22:06:12.422Z,98399.00
2023-05-08T22:08:40.055Z,98402.00
2023-05-08T22:11:09.045Z,98401.00
2023-05-08T22:13:36.696Z,98405.00
2023-05-08T22:16:04.582Z,98408.00
2023-05-08T22:18:32.324Z,98408.00
2023-05-08T22:20:59.959Z,98407.00
2023-05-08T22:23:27.660Z,98410.00
2023-05-08T22:25:55.364Z,98406.00
2023-05-08T22:28:24.375Z,98409.00
2023-05-08T22:30:52.055Z,98413.00
2023-05-08T22:33:19.750Z,98411.00
2023-05-08T22:35:47.401Z,98415.00
2023-05-08T22:38:15.523Z,98411.00
2023-05-08T22:40:43.382Z,98405.00
2023-05-08T22:43:11.056Z,98403.00
2023-05-08T22:45:40.113Z,98401.00
2023-05-08T22:48:08.398Z,98401.00
2023-05-08T22:50:36.553Z,98402.00
2023-05-08T22:53:07.920Z,98403.00
2023-05-08T22:55:38.102Z,98403.00
2023-05-08T22:58:05.917Z,98397.00
2023-05-08T23:00:33.645Z,98402.00
2023-05-08T23:03:02.688Z,98397.00
2023-05-08T23:05:30.522Z,98397.00
2023-05-08T23:07:58.165Z,98395.00
2023-05-08T23:10:25.966Z,98392.00
2023-05-08T23:12:53.617Z,98394.00
2023-05-08T23:15:22.049Z,98385.00
2023-05-08T23:17:50.086Z,98387.00
2023-05-08T23:20:19.300Z,98385.00
2023-05-08T23:22:46.965Z,98380.00
2023-05-08T23:25:14.874Z,98390.00
2023-05-08T23:27:42.637Z,98393.00
2023-05-08T23:30:13.013Z,98391.00
2023-05-08T23:32:41.323Z,98391.00
2023-05-08T23:35:09.380Z,98385.00
2023-05-08T23:37:38.417Z,98386.00
2023-05-08T23:40:07.544Z,98381.00
2023-05-08T23:42:37.161Z,98382.00
2023-05-08T23:45:06.523Z,98375.00
2023-05-08T23:47:34.232Z,98367.00
2023-05-08T23:50:02.110Z,98373.00
2023-05-08T23:52:29.779Z,98368.00
2023-05-08T23:54:58.825Z,98362.00
2023-05-08T23:57:26.476Z,98358.00
2023-05-08T23:59:54.121Z,98361.00
